Talitha — ZCAN7 — position and weather

sailwx.info

Track history (hours):
 
Tides and Currents Weather Stations Pressure Air Temp Water Temp Dewpoint Dewpoint Depression Visibility Wind Speed Wind Dir Waves Ship Positions

Talitha

Last reported at 2015-Aug-02 03:30 UTC. Time now 2015-Aug-02 04:16 UTC.
Position N 44°18' E 009°13'.

Length 80 m; draft 4.5 m.

Type: Pleasure craft. MMSI: 310051000.

Date/timePositionNaut miles runAvg speedWind from/ knotsBaromVisibWave heightAir tempDewpointWater temp
2015-Aug-02 03:30N 44°18' E 009°13'0 0.0
2015-Aug-02 02:33N 44°18' E 009°13'0 0.0
2015-Aug-02 01:18N 44°18' E 009°13'0 0.0
2015-Aug-01 23:30N 44°18' E 009°13'0 0.0
2015-Aug-01 22:12N 44°18' E 009°13'0 0.0
2015-Aug-01 21:33N 44°18' E 009°13'0 0.0
2015-Aug-01 20:24N 44°18' E 009°13'0 0.0
2015-Aug-01 19:30N 44°18' E 009°13'0 0.0
2015-Aug-01 18:12N 44°18' E 009°13'0 0.0
2015-Aug-01 16:12N 44°18' E 009°13'0 0.0
2015-Aug-01 15:24N 44°18' E 009°13'0 0.0
2015-Aug-01 14:30N 44°18' E 009°13'0 0.5
2015-Aug-01 13:34N 44°18' E 009°14'1211.5
2015-Aug-01 12:33N 44°19' E 008°57'9 8.8
2015-Aug-01 11:33N 44°24' E 008°48'2 1.9
2015-Aug-01 10:31N 44°25' E 008°50'0 0.0
2015-Aug-01 09:31N 44°25' E 008°50'0 0.0
2015-Aug-01 08:31N 44°25' E 008°50'0 0.0
2015-Aug-01 07:31N 44°25' E 008°50'0 0.0
2015-Aug-01 06:31N 44°25' E 008°50'0 0.0
2015-Aug-01 05:31N 44°25' E 008°50'0 0.0
2015-Aug-01 04:31N 44°25' E 008°50'0 0.0
2015-Aug-01 03:31N 44°25' E 008°50'0 0.0
2015-Aug-01 02:31N 44°25' E 008°50'0 0.0
2015-Aug-01 01:31N 44°25' E 008°50'0 0.0
2015-Aug-01 00:28N 44°25' E 008°50'0 0.0
2015-Jul-31 23:31N 44°25' E 008°50'0 0.0
2015-Jul-31 22:31N 44°25' E 008°50'0 0.0
2015-Jul-31 21:31N 44°25' E 008°50'0 0.0
2015-Jul-31 20:31N 44°25' E 008°50'0 0.0
2015-Jul-31 19:31N 44°25' E 008°50'0 0.0
2015-Jul-31 18:31N 44°25' E 008°50'0 0.0
2015-Jul-31 17:31N 44°25' E 008°50'0 0.0
2015-Jul-31 16:31N 44°25' E 008°50'0 0.0
2015-Jul-31 15:31N 44°25' E 008°50'0 0.0
2015-Jul-31 14:31N 44°25' E 008°50'0 0.0
2015-Jul-31 13:31N 44°25' E 008°50'0 0.0
2015-Jul-31 12:31N 44°25' E 008°50'0 0.0
2015-Jul-31 11:31N 44°25' E 008°50'0 0.0
2015-Jul-31 10:31N 44°25' E 008°50'0 0.0
2015-Jul-31 09:31N 44°25' E 008°50'0 0.0
2015-Jul-31 08:31N 44°25' E 008°50'0 0.0
2015-Jul-31 07:31N 44°25' E 008°50'0 0.0
2015-Jul-31 06:31N 44°25' E 008°50'0 0.0
2015-Jul-31 05:31N 44°25' E 008°50'0 0.0
2015-Jul-31 04:31N 44°25' E 008°50'0 0.0
2015-Jul-31 03:31N 44°25' E 008°50'0 0.0
2015-Jul-31 02:31N 44°25' E 008°50'0 0.0
2015-Jul-31 01:31N 44°25' E 008°50'0 0.0
2015-Jul-31 00:31N 44°25' E 008°50'0 0.0
2015-Jul-30 23:31N 44°25' E 008°50'0 0.0
2015-Jul-30 22:31N 44°25' E 008°50'0 0.0
2015-Jul-30 21:33N 44°25' E 008°50'4 4.2
2015-Jul-30 20:33N 44°22' E 008°46'1312.9
2015-Jul-30 19:33N 44°12' E 008°35'2612.8
2015-Jul-30 17:31N 43°54' E 008°09'1212.1
2015-Jul-30 16:33N 43°48' E 007°56'1212.4
2015-Jul-30 15:33N 43°43' E 007°39'1312.3
2015-Jul-30 14:32N 43°40' E 007°23'4 3.3
2015-Jul-30 13:18N 43°42' E 007°17'0 0.0
2015-Jul-30 12:30N 43°42' E 007°17'0 0.0
2015-Jul-30 11:17N 43°42' E 007°17'0 0.0
2015-Jul-30 10:29N 43°42' E 007°17'0 0.0
2015-Jul-30 09:29N 43°42' E 007°17'0 0.0
2015-Jul-30 08:29N 43°42' E 007°17'0 0.0
2015-Jul-30 07:29N 43°42' E 007°17'0 0.0
2015-Jul-30 06:29N 43°42' E 007°17'3 3.2
2015-Jul-30 05:33N 43°39' E 007°18'11 9.7
2015-Jul-30 04:28N 43°28' E 007°20'21 9.9
2015-Jul-30 02:23N 43°08' E 007°25'1010.9
2015-Jul-30 01:30N 42°59' E 007°27'  
Track history (hours):
 
Tides and Currents Weather Stations Pressure Air Temp Water Temp Dewpoint Dewpoint Depression Visibility Wind Speed Wind Dir Waves Ship Positions

Talitha

Last reported at 2015-Aug-02 03:30 UTC. Time now 2015-Aug-02 04:16 UTC.
Position N 44°18' E 009°13'.

Length 80 m; draft 4.5 m.

Type: Pleasure craft. MMSI: 310051000.

Date/timePositionNaut miles runAvg speedWind from/ knotsBaromVisibWave heightAir tempDewpointWater temp
2015-Aug-02 03:30N 44°18' E 009°13'0 0.0
2015-Aug-02 02:33N 44°18' E 009°13'0 0.0
2015-Aug-02 01:18N 44°18' E 009°13'0 0.0
2015-Aug-01 23:30N 44°18' E 009°13'0 0.0
2015-Aug-01 22:12N 44°18' E 009°13'0 0.0
2015-Aug-01 21:33N 44°18' E 009°13'0 0.0
2015-Aug-01 20:24N 44°18' E 009°13'0 0.0
2015-Aug-01 19:30N 44°18' E 009°13'0 0.0
2015-Aug-01 18:12N 44°18' E 009°13'0 0.0
2015-Aug-01 16:12N 44°18' E 009°13'0 0.0
2015-Aug-01 15:24N 44°18' E 009°13'0 0.0
2015-Aug-01 14:30N 44°18' E 009°13'0 0.5
2015-Aug-01 13:34N 44°18' E 009°14'1211.5
2015-Aug-01 12:33N 44°19' E 008°57'9 8.8
2015-Aug-01 11:33N 44°24' E 008°48'2 1.9
2015-Aug-01 10:31N 44°25' E 008°50'0 0.0
2015-Aug-01 09:31N 44°25' E 008°50'0 0.0
2015-Aug-01 08:31N 44°25' E 008°50'0 0.0
2015-Aug-01 07:31N 44°25' E 008°50'0 0.0
2015-Aug-01 06:31N 44°25' E 008°50'0 0.0
2015-Aug-01 05:31N 44°25' E 008°50'0 0.0
2015-Aug-01 04:31N 44°25' E 008°50'0 0.0
2015-Aug-01 03:31N 44°25' E 008°50'0 0.0
2015-Aug-01 02:31N 44°25' E 008°50'0 0.0
2015-Aug-01 01:31N 44°25' E 008°50'0 0.0
2015-Aug-01 00:28N 44°25' E 008°50'0 0.0
2015-Jul-31 23:31N 44°25' E 008°50'0 0.0
2015-Jul-31 22:31N 44°25' E 008°50'0 0.0
2015-Jul-31 21:31N 44°25' E 008°50'0 0.0
2015-Jul-31 20:31N 44°25' E 008°50'0 0.0
2015-Jul-31 19:31N 44°25' E 008°50'0 0.0
2015-Jul-31 18:31N 44°25' E 008°50'0 0.0
2015-Jul-31 17:31N 44°25' E 008°50'0 0.0
2015-Jul-31 16:31N 44°25' E 008°50'0 0.0
2015-Jul-31 15:31N 44°25' E 008°50'0 0.0
2015-Jul-31 14:31N 44°25' E 008°50'0 0.0
2015-Jul-31 13:31N 44°25' E 008°50'0 0.0
2015-Jul-31 12:31N 44°25' E 008°50'0 0.0
2015-Jul-31 11:31N 44°25' E 008°50'0 0.0
2015-Jul-31 10:31N 44°25' E 008°50'0 0.0
2015-Jul-31 09:31N 44°25' E 008°50'0 0.0
2015-Jul-31 08:31N 44°25' E 008°50'0 0.0
2015-Jul-31 07:31N 44°25' E 008°50'0 0.0
2015-Jul-31 06:31N 44°25' E 008°50'0 0.0
2015-Jul-31 05:31N 44°25' E 008°50'0 0.0
2015-Jul-31 04:31N 44°25' E 008°50'0 0.0
2015-Jul-31 03:31N 44°25' E 008°50'0 0.0
2015-Jul-31 02:31N 44°25' E 008°50'0 0.0
2015-Jul-31 01:31N 44°25' E 008°50'0 0.0
2015-Jul-31 00:31N 44°25' E 008°50'0 0.0
2015-Jul-30 23:31N 44°25' E 008°50'0 0.0
2015-Jul-30 22:31N 44°25' E 008°50'0 0.0
2015-Jul-30 21:33N 44°25' E 008°50'4 4.2
2015-Jul-30 20:33N 44°22' E 008°46'1312.9
2015-Jul-30 19:33N 44°12' E 008°35'2612.8
2015-Jul-30 17:31N 43°54' E 008°09'1212.1
2015-Jul-30 16:33N 43°48' E 007°56'1212.4
2015-Jul-30 15:33N 43°43' E 007°39'1312.3
2015-Jul-30 14:32N 43°40' E 007°23'4 3.3
2015-Jul-30 13:18N 43°42' E 007°17'0 0.0
2015-Jul-30 12:30N 43°42' E 007°17'0 0.0
2015-Jul-30 11:17N 43°42' E 007°17'0 0.0
2015-Jul-30 10:29N 43°42' E 007°17'0 0.0
2015-Jul-30 09:29N 43°42' E 007°17'0 0.0
2015-Jul-30 08:29N 43°42' E 007°17'0 0.0
2015-Jul-30 07:29N 43°42' E 007°17'0 0.0
2015-Jul-30 06:29N 43°42' E 007°17'3 3.2
2015-Jul-30 05:33N 43°39' E 007°18'11 9.7
2015-Jul-30 04:28N 43°28' E 007°20'21 9.9
2015-Jul-30 02:23N 43°08' E 007°25'1010.9
2015-Jul-30 01:30N 42°59' E 007°27'  

Dump ship's entire track history